Time;durP1;ratioP1;P1;durP2;ratioP2;P2;SDS_P1;SDS_P2;PMS_P1;PMS_P2;Temp;Humidity;BMP_temperature;BMP_pressure;BME280_temperature;BME280_humidity;BME280_pressure;Samples;Min_cycle;Max_cycle;Signal;HPM_P1;HPM_P2
2022/07/12 00:01:56;;;;;;;2.12;0.80;;;;;;;12.77;70.91;101054.70;1763365;81;21024;-78
2022/07/12 00:04:24;;;;;;;2.30;0.90;;;;;;;12.74;71.07;101058.77;1763307;80;20982;-79
2022/07/12 00:06:51;;;;;;;1.22;0.75;;;;;;;12.71;71.05;101057.56;1763449;81;21620;-78
2022/07/12 00:09:18;;;;;;;1.90;0.75;;;;;;;12.67;71.07;101062.55;1763249;80;21133;-78
2022/07/12 00:11:45;;;;;;;2.50;0.78;;;;;;;12.64;71.21;101066.59;1763258;81;21041;-79
2022/07/12 00:14:12;;;;;;;1.82;0.70;;;;;;;12.63;71.26;101065.71;1763666;81;21056;-79
2022/07/12 00:16:39;;;;;;;1.12;0.62;;;;;;;12.59;71.31;101062.80;1763370;80;21553;-79
2022/07/12 00:19:06;;;;;;;2.77;0.90;;;;;;;12.58;71.45;101065.05;1763342;80;21020;-79
2022/07/12 00:21:33;;;;;;;1.70;0.80;;;;;;;12.56;71.49;101062.06;1763435;81;21137;-79
2022/07/12 00:24:00;;;;;;;3.15;0.75;;;;;;;12.55;71.56;101058.55;1763287;80;20921;-79
2022/07/12 00:26:28;;;;;;;0.78;0.68;;;;;;;12.54;71.68;101062.56;1762727;81;21059;-79
2022/07/12 00:28:57;;;;;;;1.42;0.72;;;;;;;12.54;71.85;101067.36;1736382;80;21009;-79
2022/07/12 00:31:24;;;;;;;1.62;0.85;;;;;;;12.55;71.85;101064.27;1705634;83;21019;-79
2022/07/12 00:33:51;;;;;;;3.20;0.70;;;;;;;12.54;71.92;101066.05;1734205;82;21050;-79
2022/07/12 00:36:19;;;;;;;1.82;0.80;;;;;;;12.54;72.06;101069.98;1727029;82;21092;-79
2022/07/12 00:38:47;;;;;;;1.52;0.68;;;;;;;12.55;72.18;101066.44;1742724;82;21061;-79
2022/07/12 00:41:14;;;;;;;2.37;0.55;;;;;;;12.56;72.22;101065.55;1744986;82;21526;-79
2022/07/12 00:43:41;;;;;;;1.40;0.60;;;;;;;12.57;72.15;101066.40;1741872;82;21574;-79
2022/07/12 00:46:09;;;;;;;1.10;0.75;;;;;;;12.56;72.24;101077.37;1727950;82;22100;-79
2022/07/12 00:48:36;;;;;;;2.77;0.57;;;;;;;12.56;72.46;101076.06;1745129;82;20953;-79
2022/07/12 00:51:04;;;;;;;1.52;0.60;;;;;;;12.55;72.24;101077.41;1744985;82;21038;-79
2022/07/12 00:53:31;;;;;;;3.52;0.80;;;;;;;12.53;72.45;101077.95;1745066;82;21115;-79
2022/07/12 00:55:59;;;;;;;1.17;0.70;;;;;;;12.51;72.53;101071.41;1745099;82;21136;-79
2022/07/12 00:58:27;;;;;;;1.32;0.72;;;;;;;12.49;72.50;101077.17;1745254;82;21931;-79
2022/07/12 01:00:57;;;;;;;1.30;0.68;;;;;;;12.43;72.24;101073.44;1739759;82;21033;-79
2022/07/12 01:03:25;;;;;;;1.82;0.70;;;;;;;12.38;72.38;101074.90;1730755;82;21037;-79
2022/07/12 01:05:52;;;;;;;1.10;0.68;;;;;;;12.36;72.50;101074.55;1745174;82;21058;-79
2022/07/12 01:08:20;;;;;;;1.57;0.75;;;;;;;12.31;72.39;101078.66;1745358;82;21088;-79
2022/07/12 01:10:51;;;;;;;0.93;0.70;;;;;;;12.27;72.78;101075.72;1745112;82;21120;-79
2022/07/12 01:13:21;;;;;;;0.78;0.50;;;;;;;12.24;72.75;101079.30;1745270;82;21108;-79
2022/07/12 01:15:49;;;;;;;1.15;0.55;;;;;;;12.21;72.83;101082.03;1745117;82;20990;-79
2022/07/12 01:18:17;;;;;;;1.40;0.78;;;;;;;12.21;72.99;101085.13;1745324;82;21089;-79
2022/07/12 01:20:45;;;;;;;1.98;0.80;;;;;;;12.23;72.99;101079.38;1745126;82;21041;-79
2022/07/12 01:23:13;;;;;;;2.45;0.90;;;;;;;12.22;73.15;101081.15;1744897;82;21133;-79
2022/07/12 01:25:40;;;;;;;1.17;0.72;;;;;;;12.23;73.17;101074.97;1744905;82;21037;-79
2022/07/12 01:28:07;;;;;;;1.57;0.70;;;;;;;12.24;73.50;101075.36;1745189;82;21030;-79
2022/07/12 01:30:34;;;;;;;1.47;0.68;;;;;;;12.28;73.73;101079.62;1745123;82;21040;-79
2022/07/12 01:33:02;;;;;;;2.37;0.88;;;;;;;12.35;73.79;101080.27;1745138;82;21525;-79
2022/07/12 01:35:30;;;;;;;2.08;0.93;;;;;;;12.41;74.12;101080.05;1734256;82;21969;-78
2022/07/12 01:37:57;;;;;;;1.15;0.78;;;;;;;12.45;74.00;101073.80;1736297;82;21050;-79
2022/07/12 01:40:25;;;;;;;1.52;0.70;;;;;;;12.47;73.71;101078.98;1744973;82;21054;-79
2022/07/12 01:42:52;;;;;;;3.30;0.75;;;;;;;12.44;73.61;101077.34;1745341;82;20990;-78
2022/07/12 01:45:19;;;;;;;1.82;0.57;;;;;;;12.42;73.54;101080.48;1745050;82;21101;-79
2022/07/12 01:47:46;;;;;;;2.15;0.80;;;;;;;12.40;73.49;101082.29;1745222;82;21121;-79
2022/07/12 01:50:13;;;;;;;1.57;0.78;;;;;;;12.37;73.32;101078.45;1744929;82;21056;-78
2022/07/12 01:52:41;;;;;;;1.10;0.78;;;;;;;12.33;73.51;101083.85;1745171;82;21349;-79
2022/07/12 01:55:11;;;;;;;3.30;0.75;;;;;;;12.33;73.58;101086.48;1734375;80;21021;-79
2022/07/12 01:57:41;;;;;;;3.17;0.95;;;;;;;12.35;73.90;101083.35;1737609;82;21028;-79
2022/07/12 02:00:09;;;;;;;2.08;0.70;;;;;;;12.35;73.87;101093.41;1737450;82;22050;-79
2022/07/12 02:02:37;;;;;;;2.15;0.70;;;;;;;12.36;73.88;101090.32;1738244;82;20977;-79
2022/07/12 02:05:06;;;;;;;1.57;0.80;;;;;;;12.36;73.81;101084.63;1738062;82;21484;-79
2022/07/12 02:07:35;;;;;;;1.00;0.60;;;;;;;12.34;73.84;101086.45;1730771;82;21068;-79
2022/07/12 02:10:07;;;;;;;1.87;0.70;;;;;;;12.32;73.80;101088.25;1726104;82;21531;-79
2022/07/12 02:12:36;;;;;;;1.55;0.72;;;;;;;12.28;73.59;101090.14;1738256;82;21115;-79
2022/07/12 02:15:07;;;;;;;4.47;1.00;;;;;;;12.25;74.00;101092.88;1738423;82;21033;-79
2022/07/12 02:17:35;;;;;;;2.15;0.80;;;;;;;12.28;74.15;101091.91;1732698;82;21700;-79
2022/07/12 02:20:03;;;;;;;1.92;0.70;;;;;;;12.28;74.20;101086.66;1723601;82;21064;-79
2022/07/12 02:22:30;;;;;;;2.15;0.80;;;;;;;12.34;74.49;101091.70;1738197;82;21008;-79
2022/07/12 02:24:57;;;;;;;0.98;0.80;;;;;;;12.30;74.42;101090.07;1738353;82;21211;-79
2022/07/12 02:27:24;;;;;;;1.52;0.80;;;;;;;12.31;74.36;101090.95;1738041;82;21048;-79
2022/07/12 02:29:51;;;;;;;1.60;0.80;;;;;;;12.23;74.13;101091.20;1738435;82;21065;-79
2022/07/12 02:32:18;;;;;;;1.87;0.88;;;;;;;12.20;74.04;101096.56;1738245;82;21041;-79
2022/07/12 02:34:45;;;;;;;1.30;0.70;;;;;;;12.16;74.16;101090.52;1736133;82;21092;-79
2022/07/12 02:37:13;;;;;;;3.15;1.05;;;;;;;12.15;74.17;101091.91;1719766;82;21113;-79
2022/07/12 02:39:41;;;;;;;1.80;0.65;;;;;;;12.13;74.24;101097.20;1738393;82;21053;-79
2022/07/12 02:42:08;;;;;;;1.12;0.80;;;;;;;12.12;74.36;101082.81;1738082;82;21046;-79
2022/07/12 02:44:35;;;;;;;1.17;0.75;;;;;;;12.13;74.46;101077.95;1738329;82;21101;-79
2022/07/12 02:47:03;;;;;;;2.80;0.93;;;;;;;12.16;74.64;101083.95;1738380;82;21099;-78
2022/07/12 02:49:30;;;;;;;2.70;0.80;;;;;;;12.22;75.18;101085.52;1738102;82;21131;-79
2022/07/12 02:51:57;;;;;;;1.60;0.90;;;;;;;12.28;75.01;101079.62;1738328;82;21080;-79
2022/07/12 02:54:24;;;;;;;2.37;0.90;;;;;;;12.34;75.46;101081.65;1741548;81;21124;-79
2022/07/12 02:56:51;;;;;;;1.55;0.90;;;;;;;12.39;75.53;101078.41;1747341;82;21104;-79
2022/07/12 02:59:18;;;;;;;3.95;0.90;;;;;;;12.41;75.37;101080.52;1743249;82;21040;-79
2022/07/12 03:01:45;;;;;;;2.02;0.78;;;;;;;12.40;75.19;101074.86;1743661;82;21146;-79
2022/07/12 03:04:12;;;;;;;1.80;0.80;;;;;;;12.43;75.47;101083.50;1747274;82;21566;-79
2022/07/12 03:06:39;;;;;;;3.15;0.90;;;;;;;12.44;75.20;101080.41;1747278;82;21058;-79
2022/07/12 03:09:06;;;;;;;4.25;1.00;;;;;;;12.45;75.15;101080.38;1747372;82;21038;-79
2022/07/12 03:11:33;;;;;;;2.62;0.70;;;;;;;12.49;75.61;101079.34;1747288;82;21328;-79
2022/07/12 03:14:00;;;;;;;2.45;0.98;;;;;;;12.61;75.63;101081.14;1747221;82;21960;-79
2022/07/12 03:16:28;;;;;;;2.45;0.90;;;;;;;12.65;75.57;101074.88;1747188;82;20990;-79
2022/07/12 03:18:55;;;;;;;3.75;1.00;;;;;;;12.70;75.67;101083.47;1747483;82;20961;-79
2022/07/12 03:21:22;;;;;;;3.22;1.05;;;;;;;12.75;75.66;101074.09;1747285;82;21116;-78
2022/07/12 03:23:49;;;;;;;1.30;0.90;;;;;;;12.81;75.56;101081.32;1747382;82;21053;-79
2022/07/12 03:26:16;;;;;;;2.45;1.00;;;;;;;12.88;75.83;101078.86;1747572;82;21263;-79
2022/07/12 03:28:44;;;;;;;2.58;0.90;;;;;;;12.98;76.07;101079.86;1730213;82;21049;-79
2022/07/12 03:31:11;;;;;;;1.80;1.00;;;;;;;13.04;75.70;101083.12;1738689;82;21132;-79
2022/07/12 03:33:39;;;;;;;3.00;1.05;;;;;;;13.06;75.50;101078.67;1732430;82;21543;-79
2022/07/12 03:36:08;;;;;;;2.80;1.22;;;;;;;13.11;75.52;101079.83;1729138;82;21121;-79
2022/07/12 03:38:36;;;;;;;2.62;1.00;;;;;;;13.14;75.54;101079.70;1745692;82;21227;-79
2022/07/12 03:41:03;;;;;;;2.58;1.20;;;;;;;13.18;75.77;101091.36;1747434;82;21085;-79
2022/07/12 03:43:33;;;;;;;3.98;1.60;;;;;;;13.28;75.87;101091.08;1747398;82;21021;-79
2022/07/12 03:46:00;;;;;;;3.42;1.17;;;;;;;13.32;75.70;101087.41;1747675;81;21018;-79
2022/07/12 03:48:27;;;;;;;2.15;1.10;;;;;;;13.35;75.54;101089.91;1747372;82;21615;-79
2022/07/12 03:50:55;;;;;;;4.27;1.60;;;;;;;13.36;75.50;101096.92;1747568;82;21120;-79
2022/07/12 03:53:23;;;;;;;3.92;1.32;;;;;;;13.36;75.37;101096.45;1747215;82;21018;-79
2022/07/12 03:55:50;;;;;;;2.83;1.50;;;;;;;13.39;75.25;101100.75;1739451;80;20994;-79
2022/07/12 03:58:17;;;;;;;2.85;1.52;;;;;;;13.37;75.36;101098.16;1738107;82;20986;-79
2022/07/12 04:00:43;;;;;;;6.22;1.95;;;;;;;13.39;75.36;101094.16;1738288;82;21061;-79
2022/07/12 04:03:11;;;;;;;4.12;1.40;;;;;;;13.41;75.41;101097.58;1738101;82;21361;-79
2022/07/12 04:05:39;;;;;;;7.15;1.87;;;;;;;13.44;75.49;101097.48;1738265;82;21008;-79
2022/07/12 04:08:06;;;;;;;4.37;1.52;;;;;;;13.45;75.43;101096.56;1738112;82;21486;-79
2022/07/12 04:10:33;;;;;;;6.00;1.82;;;;;;;13.47;75.41;101092.10;1738367;82;21557;-79
2022/07/12 04:13:00;;;;;;;2.60;1.60;;;;;;;13.47;75.40;101089.47;1738305;82;21474;-79
2022/07/12 04:15:27;;;;;;;5.28;2.05;;;;;;;13.52;75.68;101090.59;1738492;82;21710;-79
2022/07/12 04:17:54;;;;;;;4.20;1.25;;;;;;;13.57;75.89;101084.69;1738293;82;21044;-79
2022/07/12 04:20:21;;;;;;;3.58;1.50;;;;;;;13.66;76.04;101094.01;1738545;82;21067;-80
2022/07/12 04:22:48;;;;;;;2.75;1.75;;;;;;;13.71;75.91;101094.23;1726398;82;21071;-78
2022/07/12 04:25:15;;;;;;;3.42;1.45;;;;;;;13.77;75.84;101097.09;1718434;82;21073;-78
2022/07/12 04:27:42;;;;;;;2.22;1.00;;;;;;;13.79;75.68;101094.79;1708699;82;21133;-78
2022/07/12 04:30:10;;;;;;;1.80;0.90;;;;;;;13.80;75.58;101095.64;1708861;82;21065;-79
2022/07/12 04:32:36;;;;;;;2.02;1.02;;;;;;;13.81;75.46;101094.74;1725468;82;21185;-79
2022/07/12 04:35:04;;;;;;;1.40;0.93;;;;;;;13.83;75.47;101091.59;1711086;82;21017;-79
2022/07/12 04:37:31;;;;;;;2.83;1.10;;;;;;;13.86;75.46;101093.25;1713751;82;21420;-79
2022/07/12 04:39:58;;;;;;;2.37;0.90;;;;;;;13.88;75.56;101090.93;1714036;82;21184;-78
2022/07/12 04:42:25;;;;;;;3.67;1.07;;;;;;;13.91;75.52;101088.63;1708452;82;21071;-79
2022/07/12 04:44:54;;;;;;;3.08;0.90;;;;;;;13.95;75.53;101083.19;1709265;82;21044;-78
2022/07/12 04:47:21;;;;;;;1.70;0.90;;;;;;;14.00;75.64;101083.87;1708964;82;21024;-79
2022/07/12 04:49:48;;;;;;;5.62;1.20;;;;;;;14.05;75.67;101082.38;1708662;82;22231;-78
2022/07/12 04:52:15;;;;;;;1.22;0.70;;;;;;;14.06;75.40;101080.98;1709238;82;21120;-78
2022/07/12 04:54:42;;;;;;;2.33;0.68;;;;;;;14.09;75.24;101087.05;1708663;82;21009;-79
2022/07/12 04:57:09;;;;;;;2.65;0.90;;;;;;;14.09;75.14;101083.95;1708819;82;21113;-78
2022/07/12 04:59:36;;;;;;;1.75;0.80;;;;;;;14.11;75.25;101075.53;1721348;82;21013;-79
2022/07/12 05:02:04;;;;;;;2.22;0.80;;;;;;;14.15;74.99;101082.84;1709094;82;21520;-79
2022/07/12 05:04:34;;;;;;;2.40;0.62;;;;;;;14.15;74.92;101081.52;1725818;82;21205;-79
2022/07/12 05:07:01;;;;;;;3.30;0.65;;;;;;;14.18;75.07;101082.25;1708664;82;21103;-79
2022/07/12 05:09:28;;;;;;;1.37;0.65;;;;;;;14.21;74.96;101081.27;1708882;82;21561;-78
2022/07/12 05:11:55;;;;;;;2.72;0.78;;;;;;;14.24;75.02;101082.02;1708873;82;20984;-79
2022/07/12 05:14:22;;;;;;;2.35;0.60;;;;;;;14.26;74.93;101081.94;1709412;82;21194;-79
2022/07/12 05:16:49;;;;;;;1.40;0.62;;;;;;;14.32;75.05;101088.73;1708690;82;21125;-79
2022/07/12 05:19:16;;;;;;;1.72;0.70;;;;;;;14.37;75.03;101090.25;1720662;82;21001;-79
2022/07/12 05:21:43;;;;;;;2.05;0.68;;;;;;;14.43;75.02;101091.78;1708568;82;21044;-78
2022/07/12 05:24:10;;;;;;;0.90;0.60;;;;;;;14.49;74.95;101094.15;1708795;82;21123;-79
2022/07/12 05:26:37;;;;;;;1.47;0.65;;;;;;;14.57;74.95;101089.44;1711541;82;20986;-79
2022/07/12 05:29:04;;;;;;;3.33;0.80;;;;;;;14.65;74.78;101090.44;1709276;82;21275;-78
2022/07/12 05:31:31;;;;;;;1.95;0.40;;;;;;;14.75;74.81;101086.95;1708364;82;21058;-78
2022/07/12 05:33:59;;;;;;;1.77;0.70;;;;;;;14.84;74.58;101091.36;1716754;82;21151;-82
2022/07/12 05:36:26;;;;;;;1.30;0.70;;;;;;;14.93;74.62;101094.91;1707162;82;21131;-81
2022/07/12 05:38:53;;;;;;;1.07;0.60;;;;;;;15.01;74.37;101089.30;1724820;82;21048;-82
2022/07/12 05:41:20;;;;;;;1.90;0.60;;;;;;;15.09;74.46;101092.45;1715428;82;21130;-81
2022/07/12 05:43:47;;;;;;;2.08;0.80;;;;;;;15.20;74.36;101095.93;1706824;82;21040;-88
2022/07/12 05:46:13;;;;;;;4.17;1.20;;;;;;;15.30;74.35;101090.63;1718213;82;21037;-87
2022/07/12 05:48:40;;;;;;;3.77;0.75;;;;;;;15.43;74.21;101096.19;1726785;82;20996;-82
2022/07/12 05:53:52;;;;;;;2.10;0.78;;;;;;;15.66;73.94;101092.50;1708181;82;22079;-82
2022/07/12 05:56:20;;;;;;;2.70;0.60;;;;;;;15.79;73.70;101090.14;1715210;82;21067;-84
2022/07/12 05:58:47;;;;;;;1.82;0.72;;;;;;;15.89;73.33;101082.64;1724032;82;21052;-78
2022/07/12 06:01:14;;;;;;;2.67;0.90;;;;;;;15.98;73.40;101085.69;1723985;82;21127;-84
2022/07/12 06:03:41;;;;;;;3.33;0.60;;;;;;;16.20;73.03;101076.70;1707604;82;21151;-79
2022/07/12 06:06:07;;;;;;;1.62;0.70;;;;;;;16.20;73.03;101076.70;1706718;82;21191;-79
2022/07/12 06:08:35;;;;;;;2.83;0.80;;;;;;;16.30;72.82;101078.44;1714884;82;21060;-80
2022/07/12 06:11:02;;;;;;;1.07;0.78;;;;;;;16.39;72.46;101073.52;1708873;82;21068;-81
2022/07/12 06:13:29;;;;;;;2.45;0.80;;;;;;;16.54;71.79;101063.94;1705939;82;21131;-79
2022/07/12 06:15:56;;;;;;;4.83;0.90;;;;;;;16.54;71.79;101063.94;1725645;82;21088;-79
2022/07/12 06:18:23;;;;;;;1.75;0.80;;;;;;;16.66;71.53;101071.27;1717295;82;21125;-77
2022/07/12 06:20:50;;;;;;;1.67;0.70;;;;;;;16.76;71.16;101077.39;1710214;82;21068;-80
2022/07/12 06:23:17;;;;;;;1.62;0.60;;;;;;;16.85;70.84;101074.28;1706642;82;21092;-78
2022/07/12 06:25:45;;;;;;;2.80;0.80;;;;;;;16.92;70.54;101065.95;1716284;82;21041;-80
2022/07/12 06:28:12;;;;;;;1.27;0.60;;;;;;;17.03;70.34;101064.53;1714987;82;21064;-78
2022/07/12 06:30:43;;;;;;;2.22;0.60;;;;;;;17.11;70.07;101067.16;1732353;82;21116;-78
2022/07/12 06:33:13;;;;;;;3.65;1.40;;;;;;;17.23;69.65;101068.75;1719639;82;21112;-78
2022/07/12 06:35:40;;;;;;;3.60;1.40;;;;;;;17.36;69.09;101068.00;1723908;82;22189;-79
2022/07/12 06:38:07;;;;;;;3.65;0.70;;;;;;;17.48;68.77;101059.84;1717797;82;21072;-78
2022/07/12 06:40:35;;;;;;;1.65;0.72;;;;;;;17.59;68.30;101061.90;1718073;82;21300;-79
2022/07/12 06:43:02;;;;;;;3.98;0.70;;;;;;;17.69;67.92;101063.10;1727025;82;21218;-78
2022/07/12 06:45:30;;;;;;;2.42;0.70;;;;;;;17.77;67.46;101064.85;1716549;82;21530;-78
2022/07/12 06:47:57;;;;;;;3.35;0.70;;;;;;;17.84;67.20;101050.80;1719221;82;21726;-77
2022/07/12 06:50:24;;;;;;;1.02;0.60;;;;;;;17.89;66.73;101055.38;1708607;82;21060;-77
2022/07/12 06:52:51;;;;;;;1.92;0.80;;;;;;;17.93;66.30;101054.72;1719860;82;21538;-79
2022/07/12 06:55:18;;;;;;;1.65;0.82;;;;;;;18.00;66.19;101055.61;1710802;82;21056;-76
2022/07/12 06:57:45;;;;;;;1.67;0.65;;;;;;;18.11;65.74;101051.48;1719849;82;21064;-78
2022/07/12 07:00:12;;;;;;;2.58;0.70;;;;;;;18.15;65.52;101053.88;1731233;82;21530;-80
2022/07/12 07:02:39;;;;;;;3.40;0.42;;;;;;;18.25;65.19;101052.86;1715223;82;21060;-80
2022/07/12 07:05:07;;;;;;;1.57;0.53;;;;;;;18.33;64.88;101051.94;1715319;82;21696;-79
2022/07/12 07:07:34;;;;;;;2.35;0.40;;;;;;;18.43;64.74;101048.28;1717041;82;21134;-78
2022/07/12 07:10:01;;;;;;;2.87;0.90;;;;;;;18.50;64.40;101061.06;1707116;82;21053;-80
2022/07/12 07:12:28;;;;;;;1.55;0.50;;;;;;;18.56;63.86;101055.02;1713038;82;21732;-81
2022/07/12 07:14:55;;;;;;;0.80;0.40;;;;;;;18.59;63.51;101060.98;1709883;82;21076;-80
2022/07/12 07:17:22;;;;;;;2.67;0.42;;;;;;;18.62;62.99;101064.81;1731998;82;21108;-81
2022/07/12 07:19:49;;;;;;;1.17;0.45;;;;;;;18.64;62.78;101054.93;1712413;82;22287;-80
2022/07/12 07:22:16;;;;;;;2.77;0.42;;;;;;;18.70;62.72;101064.33;1710466;82;21076;-83
2022/07/12 07:24:43;;;;;;;3.10;0.60;;;;;;;18.78;62.47;101055.94;1716858;82;21060;-78
2022/07/12 07:27:10;;;;;;;0.60;0.42;;;;;;;18.89;62.29;101062.77;1727112;82;21485;-77
2022/07/12 07:32:23;;;;;;;2.35;0.70;;;;;;;19.02;61.40;101062.41;1738184;82;21962;-78
2022/07/12 07:34:50;;;;;;;3.17;0.60;;;;;;;19.03;60.99;101078.71;1735123;82;21032;-77
2022/07/12 07:37:17;;;;;;;2.58;0.57;;;;;;;19.06;60.53;101077.67;1720302;82;21028;-77
2022/07/12 07:39:44;;;;;;;2.45;0.45;;;;;;;19.08;60.23;101077.11;1737857;82;20989;-77
2022/07/12 07:42:11;;;;;;;1.57;0.42;;;;;;;19.11;59.84;101076.44;1737966;82;21057;-77
2022/07/12 07:44:38;;;;;;;1.27;0.60;;;;;;;19.14;59.37;101072.73;1738172;82;21027;-78
2022/07/12 07:47:05;;;;;;;1.40;0.30;;;;;;;19.16;59.11;101073.02;1737863;82;21037;-77
2022/07/12 07:49:32;;;;;;;1.20;0.30;;;;;;;19.20;58.95;101068.36;1738264;82;21009;-77
2022/07/12 07:51:59;;;;;;;0.68;0.30;;;;;;;19.25;58.92;101065.42;1733513;82;21112;-77
2022/07/12 07:54:26;;;;;;;1.27;0.37;;;;;;;19.32;58.68;101056.12;1722163;82;21247;-77
2022/07/12 07:56:53;;;;;;;2.15;0.55;;;;;;;19.39;58.46;101056.95;1744232;80;21102;-77
2022/07/12 07:59:20;;;;;;;2.77;0.42;;;;;;;19.42;58.21;101067.86;1747137;82;21006;-77
2022/07/12 08:01:52;;;;;;;0.40;0.30;;;;;;;19.48;58.23;101062.19;1747463;82;21025;-78
2022/07/12 08:04:17;;;;;;;2.75;0.40;;;;;;;19.57;58.25;101053.61;1746578;82;21010;-77
2022/07/12 08:06:46;;;;;;;1.40;0.42;;;;;;;19.67;58.06;101049.89;1747562;82;21331;-77
2022/07/12 08:09:13;;;;;;;1.77;0.50;;;;;;;19.73;57.42;101066.81;1747113;82;21057;-77
2022/07/12 08:11:41;;;;;;;2.05;0.72;;;;;;;19.75;57.01;101056.05;1747455;82;21523;-77
2022/07/12 08:14:10;;;;;;;1.52;0.40;;;;;;;19.76;56.92;101059.95;1747088;82;21620;-77
2022/07/12 08:16:37;;;;;;;1.17;0.50;;;;;;;19.82;56.68;101068.02;1747464;82;21049;-78
2022/07/12 08:19:05;;;;;;;1.65;0.33;;;;;;;19.89;56.58;101060.47;1747066;82;21097;-77
2022/07/12 08:21:32;;;;;;;2.35;0.40;;;;;;;19.96;56.33;101053.80;1747605;82;21120;-77
2022/07/12 08:23:59;;;;;;;1.22;0.50;;;;;;;20.02;56.23;101059.56;1747044;82;21093;-77
2022/07/12 08:26:26;;;;;;;1.27;0.40;;;;;;;20.12;56.11;101062.94;1747457;82;21001;-77
2022/07/12 08:28:53;;;;;;;3.25;0.60;;;;;;;20.23;55.77;101055.97;1747125;82;21125;-77
2022/07/12 08:31:20;;;;;;;1.42;0.57;;;;;;;20.30;55.43;101063.53;1747013;82;21061;-76
2022/07/12 08:33:47;;;;;;;1.55;0.50;;;;;;;20.33;54.81;101054.00;1747105;82;21867;-76
2022/07/12 08:36:14;;;;;;;1.95;0.57;;;;;;;20.34;54.74;101049.92;1726963;82;21042;-76
2022/07/12 08:38:44;;;;;;;0.88;0.50;;;;;;;20.40;54.67;101048.65;1746729;82;21119;-77
2022/07/12 08:41:15;;;;;;;1.00;0.40;;;;;;;20.47;54.27;101050.77;1747722;82;21036;-76
2022/07/12 08:43:42;;;;;;;1.32;0.40;;;;;;;20.56;54.47;101044.47;1747145;82;21327;-77
2022/07/12 08:46:13;;;;;;;0.95;0.50;;;;;;;20.68;54.33;101051.15;1719306;82;21113;-77
2022/07/12 08:48:42;;;;;;;1.45;0.40;;;;;;;20.75;53.82;101056.89;1740325;82;21704;-78
2022/07/12 08:51:12;;;;;;;2.98;0.55;;;;;;;20.79;53.57;101048.23;1733032;82;21044;-80
2022/07/12 08:53:40;;;;;;;;;;;;;;;20.86;53.39;101050.34;1749742;82;21655;-79
2022/07/12 08:56:34;;;;;;;1.47;0.42;;;;;;;20.95;53.00;101042.20;1747316;82;21143;-79
2022/07/12 08:59:20;;;;;;;0.82;0.50;;;;;;;21.01;53.13;101044.43;1746815;82;21938;-78
2022/07/12 09:01:51;;;;;;;3.95;0.50;;;;;;;21.07;52.90;101045.32;1743965;82;20949;-79
2022/07/12 09:04:24;;;;;;;1.35;0.40;;;;;;;21.13;52.67;101044.88;1743533;82;21024;-79
2022/07/12 09:06:52;;;;;;;1.22;0.30;;;;;;;21.23;52.67;101040.21;1690476;83;21019;-79
2022/07/12 09:09:37;;;;;;;3.20;0.37;;;;;;;21.41;52.82;101032.27;1746796;82;21045;-78
2022/07/12 09:12:05;;;;;;;0.28;0.20;;;;;;;21.64;52.71;101039.06;1747358;82;21032;-79
2022/07/12 09:14:32;;;;;;;0.93;0.20;;;;;;;21.78;51.82;101036.23;1747501;82;21060;-79
2022/07/12 09:17:09;;;;;;;1.30;0.35;;;;;;;21.87;51.60;101036.05;1747168;82;21065;-79
2022/07/12 09:19:38;;;;;;;2.37;0.20;;;;;;;21.96;51.69;101038.88;1747291;82;21037;-79
2022/07/12 09:22:19;;;;;;;0.82;0.37;;;;;;;22.12;51.42;101037.73;1719414;82;21036;-79
2022/07/12 09:24:47;;;;;;;0.42;0.30;;;;;;;22.25;51.06;101038.52;1728147;82;21140;-79
2022/07/12 09:27:14;;;;;;;1.30;0.40;;;;;;;22.44;50.96;101036.63;1723706;80;21005;-80
2022/07/12 09:29:49;;;;;;;0.75;0.30;;;;;;;22.60;50.75;101031.81;1717684;81;21050;-78
2022/07/12 09:37:49;;;;;;;1.00;0.30;;;;;;;22.87;49.66;101038.66;1717387;82;21977;-79
2022/07/12 09:40:17;;;;;;;2.87;0.45;;;;;;;22.84;49.33;101040.23;1718004;80;21152;-82
2022/07/12 09:42:45;;;;;;;2.05;0.33;;;;;;;22.88;49.37;101040.34;1717187;82;21042;-80
2022/07/12 09:45:13;;;;;;;0.70;0.20;;;;;;;23.01;49.33;101040.27;1717374;80;21056;-80
2022/07/12 09:47:43;;;;;;;2.05;0.40;;;;;;;23.14;49.01;101042.31;1717205;82;22114;-79
2022/07/12 09:50:11;;;;;;;0.23;0.20;;;;;;;23.27;48.91;101035.02;1717553;82;22030;-80
2022/07/12 09:52:40;;;;;;;0.50;0.40;;;;;;;23.44;48.79;101031.47;1717572;80;21026;-79
2022/07/12 09:55:10;;;;;;;0.60;0.30;;;;;;;23.59;48.87;101031.56;1735574;80;21306;-80
2022/07/12 09:57:41;;;;;;;1.72;0.40;;;;;;;23.69;48.29;101033.83;1740215;80;21079;-79
2022/07/12 10:00:11;;;;;;;0.93;0.20;;;;;;;23.81;48.15;101029.34;1733291;80;21064;-79
2022/07/12 10:02:39;;;;;;;0.98;0.30;;;;;;;23.99;48.11;101037.16;1732951;81;21567;-81
2022/07/12 10:05:10;;;;;;;0.55;0.20;;;;;;;24.12;47.71;101030.80;1733201;82;21011;-79
2022/07/12 10:07:39;;;;;;;3.98;0.50;;;;;;;24.03;47.11;101026.57;1732978;81;21059;-81
2022/07/12 10:10:08;;;;;;;2.50;0.50;;;;;;;23.91;46.86;101044.98;1733244;80;21498;-79
2022/07/12 10:12:36;;;;;;;3.25;0.35;;;;;;;23.89;46.77;101032.23;1733138;80;21794;-79
2022/07/12 10:15:07;;;;;;;1.22;0.50;;;;;;;23.82;46.66;101028.36;1738764;80;21089;-79
2022/07/12 10:17:37;;;;;;;1.77;0.30;;;;;;;23.69;46.40;101031.15;1740847;81;21038;-79
2022/07/12 10:20:26;;;;;;;;;;;;;;;23.53;46.36;101037.42;1735556;81;20997;-79
2022/07/12 10:22:57;;;;;;;1.35;0.20;;;;;;;23.45;46.04;101042.55;1713546;82;20205;-79
2022/07/12 10:25:33;;;;;;;0.90;0.20;;;;;;;23.34;46.58;101046.93;1728867;80;21052;-79
2022/07/12 10:28:02;;;;;;;1.75;0.50;;;;;;;23.30;46.58;101044.61;1732959;80;21570;-79
2022/07/12 10:30:30;;;;;;;0.60;0.30;;;;;;;23.30;46.40;101044.13;1733053;80;21051;-81
2022/07/12 10:32:59;;;;;;;1.95;0.40;;;;;;;23.25;46.35;101053.48;1752834;80;21540;-80
2022/07/12 10:35:31;;;;;;;1.42;0.30;;;;;;;23.18;46.41;101050.96;1737513;80;21095;-78
2022/07/12 10:38:16;;;;;;;1.15;0.50;;;;;;;23.10;45.98;101054.23;1754088;81;21254;-78
2022/07/12 10:40:46;;;;;;;0.88;0.40;;;;;;;23.04;46.00;101052.91;1763478;81;21147;-78
2022/07/12 10:43:17;;;;;;;2.75;0.30;;;;;;;23.01;45.95;101054.48;1763121;80;21036;-79
2022/07/12 10:45:51;;;;;;;1.40;0.30;;;;;;;23.24;46.17;101052.64;1762733;81;21056;-79
2022/07/12 10:48:21;;;;;;;0.42;0.20;;;;;;;23.36;46.21;101050.80;1762489;81;21509;-78
2022/07/12 10:50:57;;;;;;;2.05;0.40;;;;;;;23.33;46.16;101043.91;1763397;81;21044;-79
2022/07/12 10:53:45;;;;;;;2.00;0.40;;;;;;;23.28;46.24;101050.11;1763508;80;21108;-79
2022/07/12 10:56:17;;;;;;;2.50;0.47;;;;;;;23.16;45.74;101059.94;1723239;81;21024;-79
2022/07/12 10:58:54;;;;;;;1.95;0.30;;;;;;;23.05;45.69;101046.57;1708397;83;21504;-78
2022/07/12 11:01:26;;;;;;;1.98;0.40;;;;;;;23.03;45.77;101051.21;1710350;83;21007;-77
2022/07/12 11:03:56;;;;;;;0.82;0.40;;;;;;;22.99;45.85;101054.23;1722110;82;21101;-77
2022/07/12 11:06:26;;;;;;;0.90;0.30;;;;;;;22.96;45.86;101049.14;1708926;82;21126;-78
2022/07/12 11:09:01;;;;;;;;;;;;;;;23.16;46.21;101052.41;1712385;83;21054;-77
2022/07/12 11:11:33;;;;;;;0.90;0.40;;;;;;;23.73;46.25;101041.17;1710060;83;20137;-78
2022/07/12 11:14:02;;;;;;;1.17;0.30;;;;;;;24.47;46.57;101051.46;1710251;82;21614;-78
2022/07/12 11:16:30;;;;;;;0.93;0.20;;;;;;;25.14;45.71;101036.73;1710072;83;21660;-81
2022/07/12 11:18:58;;;;;;;0.37;0.33;;;;;;;25.38;44.98;101038.20;1710232;83;21108;-82
2022/07/12 11:21:25;;;;;;;0.80;0.30;;;;;;;25.34;43.96;101031.42;1716137;83;20986;-80
2022/07/12 11:23:53;;;;;;;1.27;0.33;;;;;;;25.18;43.47;101029.75;1703552;84;21075;-84
2022/07/12 11:26:22;;;;;;;1.50;0.30;;;;;;;25.12;43.44;101032.45;1704235;83;21055;-94
2022/07/12 11:28:51;;;;;;;4.15;0.30;;;;;;;25.52;43.70;101019.05;1704324;83;21051;-82
2022/07/12 11:31:21;;;;;;;1.85;0.50;;;;;;;25.94;43.21;101016.14;1704416;83;21181;-81
2022/07/12 11:33:50;;;;;;;0.45;0.30;;;;;;;25.98;42.55;101016.19;1704674;83;21064;-80
2022/07/12 11:36:18;;;;;;;0.30;0.30;;;;;;;25.74;41.79;101018.41;1704390;83;21067;-82
2022/07/12 11:38:47;;;;;;;2.62;0.50;;;;;;;25.78;42.03;101022.03;1704674;83;21048;-83
2022/07/12 11:41:15;;;;;;;3.47;0.40;;;;;;;26.12;41.99;101018.09;1704534;83;21805;-82
2022/07/12 11:43:43;;;;;;;1.77;0.15;;;;;;;26.46;41.52;101013.09;1704406;83;21211;-81